Time;durP1;ratioP1;P1;durP2;ratioP2;P2;SDS_P1;SDS_P2;PMS_P1;PMS_P2;Temp;Humidity;BMP_temperature;BMP_pressure;BME280_temperature;BME280_humidity;BME280_pressure;Samples;Min_cycle;Max_cycle;Signal;HPM_P1;HPM_P2
2022/05/17 00:01:41;;;;;;;;;;;;;;;9.48;60.56;98406.47;4787498;29;19921;-76
2022/05/17 00:04:07;;;;;;;;;;;;;;;9.58;58.69;98415.81;4804842;29;19983;-77
2022/05/17 00:06:32;;;;;;;;;;;;;;;9.57;58.60;98409.75;4797249;29;19917;-76
2022/05/17 00:08:58;;;;;;;;;;;;;;;9.60;59.39;98414.03;4800274;29;19925;-76
2022/05/17 00:11:24;;;;;;;;;;;;;;;9.63;59.33;98404.47;4795321;29;19921;-75
2022/05/17 00:13:50;;;;;;;;;;;;;;;9.59;58.98;98414.91;4794519;29;20378;-76
2022/05/17 00:16:15;;;;;;;;;;;;;;;9.61;59.43;98415.72;4801295;29;19925;-76
2022/05/17 00:18:41;;;;;;;;;;;;;;;9.70;59.26;98407.75;4798646;29;19920;-77
2022/05/17 00:21:07;;;;;;;;;;;;;;;9.98;58.10;98405.44;4790631;29;19917;-76
2022/05/17 00:23:33;;;;;;;;;;;;;;;9.95;57.36;98405.53;4797399;29;19978;-76
2022/05/17 00:25:58;;;;;;;;;;;;;;;10.00;57.46;98405.44;4792126;29;19983;-76
2022/05/17 00:28:24;;;;;;;;;;;;;;;9.82;58.07;98401.50;4797705;29;19933;-76
2022/05/17 00:30:50;;;;;;;;;;;;;;;9.71;59.55;98404.28;4773759;30;19917;-77
2022/05/17 00:33:16;;;;;;;;;;;;;;;9.76;58.93;98404.19;4800896;29;19925;-75
2022/05/17 00:35:43;;;;;;;;;;;;;;;9.98;58.03;98394.22;4772150;30;19917;-76
2022/05/17 00:38:09;;;;;;;;;;;;;;;9.88;58.62;98406.53;4774393;29;19960;-77
2022/05/17 00:40:34;;;;;;;;;;;;;;;9.92;58.36;98403.00;4798235;29;20396;-76
2022/05/17 00:43:00;;;;;;;;;;;;;;;9.73;57.93;98399.09;4800774;29;19948;-76
2022/05/17 00:45:26;;;;;;;;;;;;;;;9.53;59.63;98399.47;4758246;30;19923;-77
2022/05/17 00:47:55;;;;;;;;;;;;;;;9.42;60.14;98403.13;4796322;29;19920;-77
2022/05/17 00:50:22;;;;;;;;;;;;;;;9.34;61.32;98399.00;4792950;29;19917;-77
2022/05/17 00:52:48;;;;;;;;;;;;;;;9.37;60.38;98393.75;4802770;29;19954;-77
2022/05/17 00:55:13;;;;;;;;;;;;;;;9.34;61.35;98394.66;4793493;29;20406;-78
2022/05/17 00:57:42;;;;;;;;;;;;;;;9.30;61.28;98393.03;4800062;29;19928;-76
2022/05/17 01:00:09;;;;;;;;;;;;;;;9.39;60.99;98395.47;4798018;29;19917;-77
2022/05/17 01:02:34;;;;;;;;;;;;;;;9.34;60.66;98386.91;4787189;29;19925;-76
2022/05/17 01:05:00;;;;;;;;;;;;;;;9.34;60.22;98391.22;4795491;29;19965;-76
2022/05/17 01:07:26;;;;;;;;;;;;;;;9.50;60.05;98379.69;4791578;29;19921;-76
2022/05/17 01:09:51;;;;;;;;;;;;;;;9.35;60.08;98378.28;4797305;29;19921;-77
2022/05/17 01:12:17;;;;;;;;;;;;;;;9.34;60.95;98383.47;4799804;29;20369;-76
2022/05/17 01:14:57;;;;;;;;;;;;;;;9.38;61.09;98382.53;4793103;29;19917;-76
2022/05/17 01:17:32;;;;;;;;;;;;;;;9.41;61.05;98372.13;4791702;29;19925;-76
2022/05/17 01:19:58;;;;;;;;;;;;;;;9.37;60.51;98367.88;4787238;29;19928;-76
2022/05/17 01:22:23;;;;;;;;;;;;;;;9.37;60.94;98362.72;4783477;29;19916;-76
2022/05/17 01:24:49;;;;;;;;;;;;;;;9.28;61.72;98373.25;4787095;29;19921;-76
2022/05/17 01:27:19;;;;;;;;;;;;;;;9.31;60.88;98373.19;4771026;30;19921;-77
2022/05/17 01:29:45;;;;;;;;;;;;;;;9.57;59.75;98370.91;4797851;29;19930;-77
2022/05/17 01:32:11;;;;;;;;;;;;;;;9.58;59.18;98358.84;4795507;29;19917;-75
2022/05/17 01:34:36;;;;;;;;;;;;;;;9.58;59.82;98364.03;4786999;29;20298;-76
2022/05/17 01:37:02;;;;;;;;;;;;;;;9.56;59.31;98364.03;4790266;29;20317;-76
2022/05/17 01:39:28;;;;;;;;;;;;;;;9.64;60.46;98363.88;4792826;29;20593;-77
2022/05/17 01:41:54;;;;;;;;;;;;;;;9.56;59.64;98358.84;4785536;29;19918;-75
2022/05/17 01:44:19;;;;;;;;;;;;;;;9.38;60.80;98356.66;4782453;30;19965;-76
2022/05/17 01:46:45;;;;;;;;;;;;;;;9.27;61.22;98353.44;4788225;29;19917;-75
2022/05/17 01:49:10;;;;;;;;;;;;;;;9.47;60.83;98359.03;4797872;29;19929;-75
2022/05/17 01:51:36;;;;;;;;;;;;;;;9.51;60.46;98350.34;4794425;29;19924;-77
2022/05/17 01:54:01;;;;;;;;;;;;;;;9.50;60.38;98361.59;4791787;29;20034;-77
2022/05/17 01:56:27;;;;;;;;;;;;;;;9.66;59.49;98370.72;4799065;29;19979;-77
2022/05/17 01:58:52;;;;;;;;;;;;;;;9.74;59.16;98355.03;4797567;29;19921;-77
2022/05/17 02:01:18;;;;;;;;;;;;;;;9.69;59.14;98359.44;4792008;29;19917;-76
2022/05/17 02:03:44;;;;;;;;;;;;;;;9.53;60.68;98361.53;4794975;29;20020;-76
2022/05/17 02:06:09;;;;;;;;;;;;;;;9.51;60.26;98355.50;4792068;29;19918;-74
2022/05/17 02:08:35;;;;;;;;;;;;;;;9.38;61.54;98367.00;4796769;29;19948;-76
2022/05/17 02:11:00;;;;;;;;;;;;;;;9.54;60.59;98370.13;4799224;29;19952;-76
2022/05/17 02:13:26;;;;;;;;;;;;;;;9.60;61.13;98365.69;4791835;29;19928;-76
2022/05/17 02:15:51;;;;;;;;;;;;;;;9.67;60.13;98356.06;4792384;29;19917;-75
2022/05/17 02:18:17;;;;;;;;;;;;;;;9.86;59.35;98356.50;4798893;29;19921;-75
2022/05/17 02:20:42;;;;;;;;;;;;;;;9.85;59.29;98350.47;4786316;29;20305;-76
2022/05/17 02:23:08;;;;;;;;;;;;;;;9.98;59.36;98366.56;4792540;29;19921;-74
2022/05/17 02:25:34;;;;;;;;;;;;;;;9.86;59.07;98357.34;4791726;29;19928;-76
2022/05/17 02:28:08;;;;;;;;;;;;;;;9.68;60.36;98357.75;4797464;29;19921;-75
2022/05/17 02:30:34;;;;;;;;;;;;;;;9.63;60.87;98352.69;4755249;30;19921;-75
2022/05/17 02:32:59;;;;;;;;;;;;;;;9.59;60.70;98356.22;4798844;29;20366;-78
2022/05/17 02:35:25;;;;;;;;;;;;;;;9.67;60.69;98351.72;4785837;29;19967;-76
2022/05/17 02:37:50;;;;;;;;;;;;;;;9.64;60.21;98348.34;4797537;29;20712;-76
2022/05/17 02:40:16;;;;;;;;;;;;;;;9.76;59.96;98349.81;4792097;29;19924;-75
2022/05/17 02:42:41;;;;;;;;;;;;;;;9.80;59.34;98346.25;4790861;29;19967;-76
2022/05/17 02:45:07;;;;;;;;;;;;;;;9.75;60.36;98350.69;4782790;30;20305;-75
2022/05/17 02:47:33;;;;;;;;;;;;;;;9.80;60.13;98351.44;4785188;29;20385;-77
2022/05/17 02:50:00;;;;;;;;;;;;;;;9.87;59.40;98355.63;4760140;29;19971;-76
2022/05/17 02:52:25;;;;;;;;;;;;;;;9.84;59.63;98355.66;4799589;29;19949;-77
2022/05/17 02:54:51;;;;;;;;;;;;;;;9.81;60.68;98338.47;4802161;29;19928;-77
2022/05/17 02:57:16;;;;;;;;;;;;;;;10.16;58.83;98360.13;4794828;29;19921;-75
2022/05/17 02:59:42;;;;;;;;;;;;;;;10.26;58.19;98340.91;4796789;29;20068;-76
2022/05/17 03:02:08;;;;;;;;;;;;;;;10.42;57.79;98346.59;4788694;29;19917;-77
2022/05/17 03:04:33;;;;;;;;;;;;;;;10.27;57.81;98342.63;4796207;29;19920;-75
2022/05/17 03:06:59;;;;;;;;;;;;;;;10.29;58.51;98340.00;4790757;29;19921;-76
2022/05/17 03:09:24;;;;;;;;;;;;;;;10.18;58.08;98333.31;4801696;29;20010;-76
2022/05/17 03:11:50;;;;;;;;;;;;;;;10.10;58.18;98336.97;4799916;29;19917;-76
2022/05/17 03:14:17;;;;;;;;;;;;;;;10.24;58.24;98341.81;4793462;29;20401;-76
2022/05/17 03:16:42;;;;;;;;;;;;;;;10.25;57.89;98343.53;4798900;29;19923;-76
2022/05/17 03:19:08;;;;;;;;;;;;;;;10.35;57.90;98337.25;4793315;29;19921;-77
2022/05/17 03:21:33;;;;;;;;;;;;;;;10.27;57.90;98363.38;4805829;29;20017;-75
2022/05/17 03:23:59;;;;;;;;;;;;;;;10.27;58.05;98334.00;4791209;29;19928;-77
2022/05/17 03:26:24;;;;;;;;;;;;;;;10.25;57.92;98341.81;4791543;29;20012;-77
2022/05/17 03:28:50;;;;;;;;;;;;;;;10.20;58.03;98328.06;4790560;29;19925;-76
2022/05/17 03:31:16;;;;;;;;;;;;;;;10.07;58.48;98335.28;4791691;29;19960;-77
2022/05/17 03:33:44;;;;;;;;;;;;;;;10.35;57.61;98329.47;4788904;29;19978;-77
2022/05/17 03:36:09;;;;;;;;;;;;;;;10.43;57.58;98346.53;4789009;29;19956;-76
2022/05/17 03:38:35;;;;;;;;;;;;;;;10.59;57.14;98328.88;4787905;30;20032;-76
2022/05/17 03:41:01;;;;;;;;;;;;;;;10.51;57.88;98330.81;4772786;30;19917;-77
2022/05/17 03:43:27;;;;;;;;;;;;;;;10.57;57.36;98329.78;4787929;30;19921;-76
2022/05/17 03:45:52;;;;;;;;;;;;;;;10.75;57.71;98328.47;4789009;29;20389;-76
2022/05/17 03:48:18;;;;;;;;;;;;;;;10.68;57.38;98326.03;4787986;29;19928;-77
2022/05/17 03:50:43;;;;;;;;;;;;;;;10.73;56.70;98327.69;4787732;30;19921;-76
2022/05/17 03:53:09;;;;;;;;;;;;;;;10.66;57.65;98319.19;4786823;29;19931;-76
2022/05/17 03:55:34;;;;;;;;;;;;;;;10.57;57.91;98322.88;4787620;30;19925;-76
2022/05/17 03:58:00;;;;;;;;;;;;;;;10.82;56.95;98319.66;4772657;30;19953;-76
2022/05/17 04:00:25;;;;;;;;;;;;;;;10.84;55.75;98320.44;4774513;29;19917;-76
2022/05/17 04:02:51;;;;;;;;;;;;;;;10.77;56.93;98329.31;4794877;29;19921;-77
2022/05/17 04:05:17;;;;;;;;;;;;;;;10.58;57.71;98326.31;4787583;30;19921;-76
2022/05/17 04:07:42;;;;;;;;;;;;;;;10.69;57.19;98319.13;4788835;30;19951;-76
2022/05/17 04:10:08;;;;;;;;;;;;;;;10.76;56.58;98332.75;4788632;29;19921;-76
2022/05/17 04:12:34;;;;;;;;;;;;;;;10.71;57.04;98327.69;4772621;29;19932;-76
2022/05/17 04:14:59;;;;;;;;;;;;;;;10.83;56.36;98352.47;4787006;30;20348;-76
2022/05/17 04:17:27;;;;;;;;;;;;;;;10.90;55.92;98344.50;4788913;29;19921;-77
2022/05/17 04:19:52;;;;;;;;;;;;;;;11.00;55.93;98319.16;4787795;30;19917;-75
2022/05/17 04:22:17;;;;;;;;;;;;;;;10.92;56.22;98326.28;4787544;29;19925;-76
2022/05/17 04:24:43;;;;;;;;;;;;;;;10.96;56.09;98324.47;4787273;30;20016;-76
2022/05/17 04:27:14;;;;;;;;;;;;;;;10.89;56.16;98318.56;4787509;29;19921;-76
2022/05/17 04:29:41;;;;;;;;;;;;;;;10.90;56.03;98325.47;4787132;30;19933;-77
2022/05/17 04:32:07;;;;;;;;;;;;;;;10.71;57.00;98321.66;4772354;30;19924;-76
2022/05/17 04:34:32;;;;;;;;;;;;;;;10.57;56.67;98320.28;4787333;30;20373;-78
2022/05/17 04:36:58;;;;;;;;;;;;;;;10.43;58.22;98337.91;4771934;30;19917;-77
2022/05/17 04:39:24;;;;;;;;;;;;;;;10.74;56.79;98330.22;4788344;29;19921;-76
2022/05/17 04:41:50;;;;;;;;;;;;;;;10.82;56.84;98338.66;4806832;29;19960;-78
2022/05/17 04:44:15;;;;;;;;;;;;;;;10.73;57.18;98319.91;4787024;29;19980;-77
2022/05/17 04:46:41;;;;;;;;;;;;;;;10.69;57.41;98332.09;4787316;30;19917;-76
2022/05/17 04:49:07;;;;;;;;;;;;;;;10.94;56.59;98324.50;4787590;30;20301;-76
2022/05/17 04:51:33;;;;;;;;;;;;;;;11.16;55.58;98327.34;4788081;29;19987;-76
2022/05/17 04:53:59;;;;;;;;;;;;;;;11.36;54.61;98319.00;4787286;29;20034;-76
2022/05/17 04:56:25;;;;;;;;;;;;;;;11.35;54.55;98309.50;4804715;29;19974;-76
2022/05/17 04:58:51;;;;;;;;;;;;;;;11.31;55.02;98313.09;4806024;29;19950;-77
2022/05/17 05:01:16;;;;;;;;;;;;;;;11.42;54.78;98308.47;4798033;29;19921;-77
2022/05/17 05:03:42;;;;;;;;;;;;;;;11.18;55.32;98328.19;4788572;29;20446;-76
2022/05/17 05:06:07;;;;;;;;;;;;;;;11.30;55.18;98314.84;4788462;29;19918;-77
2022/05/17 05:08:32;;;;;;;;;;;;;;;11.45;55.37;98316.13;4788357;29;20398;-77
2022/05/17 05:10:58;;;;;;;;;;;;;;;11.61;54.57;98307.00;4788415;29;20421;-76
2022/05/17 05:13:24;;;;;;;;;;;;;;;11.56;54.81;98311.50;4787904;29;19925;-76
2022/05/17 05:15:50;;;;;;;;;;;;;;;11.39;54.83;98311.13;4788569;29;19925;-76
2022/05/17 05:18:16;;;;;;;;;;;;;;;11.63;54.23;98317.34;4787158;30;19925;-77
2022/05/17 05:20:43;;;;;;;;;;;;;;;11.58;54.96;98314.88;4787472;29;19917;-76
2022/05/17 05:23:08;;;;;;;;;;;;;;;11.45;54.76;98300.56;4773764;30;20382;-78
2022/05/17 05:25:34;;;;;;;;;;;;;;;11.69;53.80;98307.63;4798251;29;19950;-77
2022/05/17 05:28:01;;;;;;;;;;;;;;;11.78;53.66;98305.66;4791891;29;19920;-78
2022/05/17 05:30:26;;;;;;;;;;;;;;;11.76;53.73;98310.88;4797660;29;19960;-76
2022/05/17 05:32:52;;;;;;;;;;;;;;;12.03;53.17;98318.75;4800376;29;20397;-76
2022/05/17 05:35:18;;;;;;;;;;;;;;;11.97;53.22;98308.56;4789343;29;19970;-76
2022/05/17 05:37:44;;;;;;;;;;;;;;;11.88;52.79;98310.56;4796976;29;20103;-75
2022/05/17 05:40:09;;;;;;;;;;;;;;;11.82;53.47;98312.44;4802493;29;19916;-77
2022/05/17 05:42:35;;;;;;;;;;;;;;;12.07;53.04;98307.38;4793300;29;20083;-76
2022/05/17 05:45:01;;;;;;;;;;;;;;;12.29;52.74;98294.53;4761889;30;20011;-76
2022/05/17 05:47:26;;;;;;;;;;;;;;;12.32;52.31;98323.03;4771920;29;20293;-76
2022/05/17 05:49:52;;;;;;;;;;;;;;;12.38;51.81;98315.03;4787661;29;20301;-78
2022/05/17 05:52:18;;;;;;;;;;;;;;;12.48;51.74;98300.81;4787923;29;19921;-76
2022/05/17 05:54:44;;;;;;;;;;;;;;;12.65;51.17;98293.31;4798544;29;20321;-77
2022/05/17 05:57:09;;;;;;;;;;;;;;;12.71;51.11;98281.84;4769323;29;19921;-77
2022/05/17 05:59:35;;;;;;;;;;;;;;;12.77;51.04;98297.22;4792816;29;19924;-77
2022/05/17 06:02:01;;;;;;;;;;;;;;;12.87;50.60;98300.34;4778228;30;20385;-77
2022/05/17 06:04:27;;;;;;;;;;;;;;;12.99;50.58;98302.53;4800317;29;19924;-77
2022/05/17 06:06:54;;;;;;;;;;;;;;;12.87;50.46;98300.34;4786192;30;19983;-77
2022/05/17 06:09:20;;;;;;;;;;;;;;;12.95;50.56;98301.78;4800266;29;19951;-77
2022/05/17 06:11:45;;;;;;;;;;;;;;;12.85;50.47;98290.00;4794745;29;19967;-77
2022/05/17 06:14:11;;;;;;;;;;;;;;;12.75;50.77;98301.66;4791411;29;19925;-77
2022/05/17 06:16:36;;;;;;;;;;;;;;;12.76;50.87;98292.09;4799405;29;19925;-77
2022/05/17 06:19:02;;;;;;;;;;;;;;;12.77;50.93;98288.56;4795042;29;20445;-75
2022/05/17 06:21:28;;;;;;;;;;;;;;;12.85;50.24;98294.38;4785823;30;20023;-78
2022/05/17 06:23:54;;;;;;;;;;;;;;;12.69;50.39;98305.31;4785413;29;20012;-78
2022/05/17 06:26:19;;;;;;;;;;;;;;;12.75;50.04;98296.44;4799800;29;19921;-76
2022/05/17 06:28:45;;;;;;;;;;;;;;;12.62;50.78;98288.19;4796926;29;20445;-77
2022/05/17 06:31:11;;;;;;;;;;;;;;;12.90;50.05;98282.88;4789558;29;20040;-76
2022/05/17 06:33:39;;;;;;;;;;;;;;;12.95;49.44;98293.13;4793770;29;19963;-78
2022/05/17 06:36:05;;;;;;;;;;;;;;;13.02;49.71;98294.63;4792799;29;19954;-76
2022/05/17 06:38:31;;;;;;;;;;;;;;;13.19;49.21;98284.47;4770994;30;20332;-77
2022/05/17 06:40:57;;;;;;;;;;;;;;;13.22;49.39;98294.78;4797794;29;19921;-78
2022/05/17 06:43:22;;;;;;;;;;;;;;;13.18;49.28;98300.97;4774368;30;20063;-78
2022/05/17 06:45:48;;;;;;;;;;;;;;;13.32;48.98;98284.00;4787137;29;19921;-78
2022/05/17 06:48:13;;;;;;;;;;;;;;;13.13;48.52;98308.09;4797889;29;19921;-76
2022/05/17 06:50:39;;;;;;;;;;;;;;;13.16;49.17;98294.13;4792136;29;19960;-79
2022/05/17 06:53:07;;;;;;;;;;;;;;;13.28;48.63;98292.84;4794646;29;20394;-77
2022/05/17 06:55:32;;;;;;;;;;;;;;;13.31;48.55;98300.56;4800097;29;19973;-76
2022/05/17 06:57:58;;;;;;;;;;;;;;;13.33;48.71;98307.41;4792955;29;19917;-75
2022/05/17 07:00:24;;;;;;;;;;;;;;;13.52;48.16;98304.97;4790631;29;19932;-77
2022/05/17 07:02:49;;;;;;;;;;;;;;;13.47;48.20;98305.16;4791621;29;19920;-76
2022/05/17 07:05:16;;;;;;;;;;;;;;;13.66;47.86;98314.88;4792926;29;19941;-77
2022/05/17 07:07:41;;;;;;;;;;;;;;;13.68;48.06;98313.88;4799296;29;19924;-76
2022/05/17 07:13:09;;;;;;;;;;;;;;;13.44;49.24;98310.47;4790870;29;19921;-81
2022/05/17 07:15:39;;;;;;;;;;;;;;;13.52;49.23;98307.56;4794651;29;19949;-80
2022/05/17 07:18:04;;;;;;;;;;;;;;;13.51;49.62;98318.88;4799782;29;19929;-81
2022/05/17 07:20:31;;;;;;;;;;;;;;;13.46;50.38;98310.38;4787175;29;19941;-80
2022/05/17 07:22:57;;;;;;;;;;;;;;;13.39;50.09;98311.53;4788680;29;19928;-77
2022/05/17 07:25:23;;;;;;;;;;;;;;;13.19;51.35;98310.50;4793246;29;20408;-77
2022/05/17 07:27:48;;;;;;;;;;;;;;;13.12;51.82;98322.03;4799903;29;19922;-77
2022/05/17 07:30:14;;;;;;;;;;;;;;;12.77;53.15;98325.84;4793650;29;20312;-76
2022/05/17 07:32:40;;;;;;;;;;;;;;;12.64;52.88;98320.19;4790842;29;19961;-77
2022/05/17 07:35:06;;;;;;;;;;;;;;;12.72;52.55;98319.94;4791454;29;19999;-77
2022/05/17 07:37:32;;;;;;;;;;;;;;;12.60;53.53;98316.03;4781308;30;20378;-76
2022/05/17 07:39:58;;;;;;;;;;;;;;;12.68;53.96;98323.56;4790014;29;19917;-77
2022/05/17 07:42:23;;;;;;;;;;;;;;;12.88;52.84;98320.28;4788466;29;19986;-77
2022/05/17 07:44:49;;;;;;;;;;;;;;;13.03;52.68;98313.69;4789810;29;19957;-77
2022/05/17 07:47:14;;;;;;;;;;;;;;;12.93;53.51;98314.00;4788382;29;20031;-76
2022/05/17 07:49:42;;;;;;;;;;;;;;;12.98;53.28;98321.66;4788424;29;20382;-76
2022/05/17 07:52:07;;;;;;;;;;;;;;;13.10;52.99;98318.63;4805712;29;19921;-76
2022/05/17 07:54:37;;;;;;;;;;;;;;;13.20;53.00;98314.78;4807585;29;20016;-76
2022/05/17 07:57:04;;;;;;;;;;;;;;;13.09;53.61;98319.50;4807315;29;20016;-77
2022/05/17 07:59:29;;;;;;;;;;;;;;;13.16;52.92;98315.81;4791189;29;19921;-77
2022/05/17 08:01:55;;;;;;;;;;;;;;;13.29;52.54;98315.41;4806961;29;20019;-80
2022/05/17 08:04:20;;;;;;;;;;;;;;;13.54;51.99;98305.75;4807802;29;19960;-77
2022/05/17 08:06:46;;;;;;;;;;;;;;;13.60;51.75;98305.50;4807467;29;19921;-76
2022/05/17 08:09:14;;;;;;;;;;;;;;;13.43;52.82;98315.75;4807407;29;20020;-77
2022/05/17 08:11:40;;;;;;;;;;;;;;;13.41;53.19;98314.94;4807545;29;19978;-77
2022/05/17 08:14:05;;;;;;;;;;;;;;;13.57;52.45;98305.66;4807468;29;19917;-76
2022/05/17 08:16:31;;;;;;;;;;;;;;;13.77;52.13;98311.84;4807474;29;20048;-76
2022/05/17 08:18:57;;;;;;;;;;;;;;;13.87;52.10;98329.66;4806682;29;19917;-77
2022/05/17 08:21:22;;;;;;;;;;;;;;;14.06;51.49;98313.31;4800987;29;20007;-77
2022/05/17 08:23:48;;;;;;;;;;;;;;;14.10;51.68;98326.16;4788844;29;19925;-76
2022/05/17 08:28:58;;;;;;;;;;;;;;;14.06;51.07;98318.53;4798373;29;20024;-76
2022/05/17 08:31:24;;;;;;;;;;;;;;;13.82;52.12;98333.38;4800316;29;19979;-77
2022/05/17 08:33:50;;;;;;;;;;;;;;;13.88;51.38;98320.09;4787918;29;19996;-79
2022/05/17 08:36:15;;;;;;;;;;;;;;;13.87;51.46;98331.44;4782397;29;19924;-77
2022/05/17 08:38:42;;;;;;;;;;;;;;;13.90;51.17;98328.72;4803060;29;19921;-76
2022/05/17 08:41:24;;;;;;;;;;;;;;;13.63;52.07;98328.84;4795146;29;19967;-77
2022/05/17 08:43:55;;;;;;;;;;;;;;;13.52;52.40;98333.63;4777737;29;20732;-75
2022/05/17 08:46:26;;;;;;;;;;;;;;;13.36;53.14;98342.91;4793496;29;20452;-77
2022/05/17 08:48:52;;;;;;;;;;;;;;;13.41;52.67;98340.97;4794074;29;19973;-76
2022/05/17 08:51:23;;;;;;;;;;;;;;;13.35;52.63;98343.81;4787482;29;19917;-76
2022/05/17 08:53:49;;;;;;;;;;;;;;;13.23;53.36;98342.50;4797312;29;19925;-78
2022/05/17 08:56:14;;;;;;;;;;;;;;;13.28;53.22;98339.72;4794029;29;20313;-77
2022/05/17 08:58:39;;;;;;;;;;;;;;;13.43;52.99;98350.44;4803664;29;19921;-77
2022/05/17 09:01:07;;;;;;;;;;;;;;;13.44;52.92;98357.34;4800758;29;19917;-77
2022/05/17 09:03:33;;;;;;;;;;;;;;;13.64;52.27;98340.97;4801111;29;19929;-77
2022/05/17 09:05:58;;;;;;;;;;;;;;;13.75;51.95;98351.00;4789101;29;19921;-78
2022/05/17 09:08:28;;;;;;;;;;;;;;;13.75;51.92;98350.16;4787501;29;19953;-78
2022/05/17 09:11:03;;;;;;;;;;;;;;;13.66;51.93;98360.03;4787772;29;20307;-77
2022/05/17 09:13:31;;;;;;;;;;;;;;;13.65;52.20;98353.13;4788698;29;19925;-77
2022/05/17 09:15:57;;;;;;;;;;;;;;;13.63;52.13;98356.66;4772504;30;19971;-78
2022/05/17 09:18:23;;;;;;;;;;;;;;;13.60;52.75;98352.41;4787536;30;20012;-77
2022/05/17 09:20:49;;;;;;;;;;;;;;;13.57;52.62;98356.91;4787772;30;20017;-77
2022/05/17 09:23:14;;;;;;;;;;;;;;;13.52;52.73;98354.47;4787435;30;19925;-78
2022/05/17 09:25:43;;;;;;;;;;;;;;;13.54;52.50;98363.06;4787237;29;19954;-78
2022/05/17 09:28:11;;;;;;;;;;;;;;;13.38;53.22;98357.59;4802233;29;20433;-77
2022/05/17 09:30:37;;;;;;;;;;;;;;;13.23;53.85;98355.50;4797828;29;19917;-77
2022/05/17 09:33:07;;;;;;;;;;;;;;;13.17;53.61;98363.50;4800602;29;19928;-78
2022/05/17 09:35:42;;;;;;;;;;;;;;;13.17;53.79;98368.72;4785388;30;20048;-80
2022/05/17 09:38:08;;;;;;;;;;;;;;;13.08;54.24;98363.84;4798809;29;19983;-75
2022/05/17 09:40:36;;;;;;;;;;;;;;;13.18;54.05;98379.06;4791050;29;19917;-77
2022/05/17 09:43:06;;;;;;;;;;;;;;;13.32;53.73;98369.97;4789318;29;20381;-78
2022/05/17 09:45:45;;;;;;;;;;;;;;;13.27;53.54;98361.47;4800528;29;19946;-78
2022/05/17 09:48:11;;;;;;;;;;;;;;;13.39;53.49;98371.47;4799468;29;19928;-77
2022/05/17 09:53:37;;;;;;;;;;;;;;;13.62;53.13;98368.00;4800413;29;19930;-78
2022/05/17 09:56:04;;;;;;;;;;;;;;;13.77;52.70;98363.97;4798138;29;19921;-78
2022/05/17 09:58:32;;;;;;;;;;;;;;;13.43;52.62;98383.47;4784768;29;19947;-78
2022/05/17 10:00:58;;;;;;;;;;;;;;;13.42;53.02;98369.59;4793287;29;19920;-77
2022/05/17 10:03:26;;;;;;;;;;;;;;;13.46;52.99;98355.53;4792993;29;20011;-78
2022/05/17 10:05:57;;;;;;;;;;;;;;;13.38;53.40;98368.00;4796140;29;20434;-77
2022/05/17 10:08:40;;;;;;;;;;;;;;;13.51;53.29;98370.13;4800175;29;19921;-78
2022/05/17 10:11:13;;;;;;;;;;;;;;;13.65;52.68;98371.34;4786669;29;20451;-79
2022/05/17 10:13:45;;;;;;;;;;;;;;;13.53;53.19;98377.00;4798940;29;19925;-77
2022/05/17 10:16:31;;;;;;;;;;;;;;;13.52;52.85;98375.31;4795657;29;19970;-77
2022/05/17 10:18:58;;;;;;;;;;;;;;;13.43;53.17;98379.09;4775056;29;19924;-78
2022/05/17 10:21:39;;;;;;;;;;;;;;;13.28;53.47;98378.78;4799613;29;19917;-78
2022/05/17 10:24:13;;;;;;;;;;;;;;;13.09;54.02;98379.41;4798123;29;20032;-79
2022/05/17 10:26:40;;;;;;;;;;;;;;;12.87;55.17;98386.22;4788820;29;19928;-78
2022/05/17 10:29:13;;;;;;;;;;;;;;;12.80;55.04;98384.75;4771607;30;20340;-77
2022/05/17 10:31:46;;;;;;;;;;;;;;;12.87;55.01;98386.22;4787708;29;19971;-79
2022/05/17 10:34:30;;;;;;;;;;;;;;;12.97;54.78;98378.09;4786623;30;19965;-77
2022/05/17 10:36:57;;;;;;;;;;;;;;;13.01;54.79;98383.16;4786466;30;19921;-78
2022/05/17 10:39:30;;;;;;;;;;;;;;;13.29;54.26;98388.31;4785825;30;19996;-77
2022/05/17 10:41:56;;;;;;;;;;;;;;;13.23;53.92;98376.34;4785972;30;19921;-78
2022/05/17 10:44:22;;;;;;;;;;;;;;;13.21;54.30;98370.31;4771147;30;19917;-77
2022/05/17 10:46:51;;;;;;;;;;;;;;;13.15;55.04;98381.81;4787112;29;19928;-77
2022/05/17 10:49:29;;;;;;;;;;;;;;;13.26;54.48;98389.25;4787382;30;20382;-78
2022/05/17 10:51:57;;;;;;;;;;;;;;;13.30;54.37;98379.59;4786016;30;20060;-76
2022/05/17 10:54:24;;;;;;;;;;;;;;;13.34;54.01;98387.25;4786118;30;20312;-77
2022/05/17 10:56:50;;;;;;;;;;;;;;;13.10;53.74;98386.31;4785985;29;19970;-78
2022/05/17 10:59:34;;;;;;;;;;;;;;;12.96;55.02;98391.13;4787390;29;20323;-79
2022/05/17 11:02:03;;;;;;;;;;;;;;;12.98;54.74;98384.13;4786649;29;20281;-78
2022/05/17 11:04:28;;;;;;;;;;;;;;;12.71;55.75;98381.56;4786910;29;19924;-80
2022/05/17 11:07:09;;;;;;;;;;;;;;;12.57;55.68;98393.31;4787364;29;19925;-76
2022/05/17 11:09:53;;;;;;;;;;;;;;;12.42;56.96;98384.28;4787601;29;19983;-77
2022/05/17 11:12:19;;;;;;;;;;;;;;;12.28;57.60;98389.03;4790531;29;19928;-77
2022/05/17 11:14:57;;;;;;;;;;;;;;;12.13;58.09;98390.34;4789349;30;19921;-78
2022/05/17 11:17:35;;;;;;;;;;;;;;;12.33;57.17;98389.75;4790530;29;19921;-78
2022/05/17 11:20:04;;;;;;;;;;;;;;;12.47;57.19;98387.56;4759392;30;19921;-78
2022/05/17 11:22:35;;;;;;;;;;;;;;;12.31;56.97;98386.34;4790565;29;19925;-79
2022/05/17 11:25:10;;;;;;;;;;;;;;;12.26;57.25;98393.44;4790961;29;19921;-78
2022/05/17 11:27:38;;;;;;;;;;;;;;;12.42;57.30;98394.66;4788876;30;20421;-77
2022/05/17 11:30:04;;;;;;;;;;;;;;;12.44;57.00;98395.47;4788998;30;20304;-77
2022/05/17 11:32:30;;;;;;;;;;;;;;;12.64;56.67;98395.66;4788995;29;19921;-80
2022/05/17 11:35:02;;;;;;;;;;;;;;;12.73;56.66;98395.34;4788761;29;19921;-77
2022/05/17 11:37:36;;;;;;;;;;;;;;;12.89;56.38;98393.09;4802472;29;19975;-78
2022/05/17 11:40:11;;;;;;;;;;;;;;;13.14;55.81;98385.28;4799885;29;19928;-77
2022/05/17 11:43:40;;;;;;;;;;;;;;;13.39;55.21;98387.09;4791056;29;20405;-78
2022/05/17 11:45:44;;;;;;;;;;;;;;;13.55;54.68;98390.81;4799021;29;19920;-76
2022/05/17 11:48:14;;;;;;;;;;;;;;;13.69;53.96;98388.56;4785906;30;19921;-76
2022/05/17 11:51:01;;;;;;;;;;;;;;;13.65;53.80;98381.78;4758769;30;19928;-78
2022/05/17 11:53:27;;;;;;;;;;;;;;;13.56;53.89;98394.28;4790548;29;19925;-77
2022/05/17 11:56:12;;;;;;;;;;;;;;;13.62;53.91;98389.69;4773163;30;19928;-77
2022/05/17 11:58:38;;;;;;;;;;;;;;;13.52;54.04;98392.72;4775322;30;19925;-77
2022/05/17 12:01:04;;;;;;;;;;;;;;;13.44;53.92;98392.97;4792315;29;20422;-78
2022/05/17 12:03:50;;;;;;;;;;;;;;;13.45;54.03;98389.47;4791038;29;20385;-80
2022/05/17 12:06:28;;;;;;;;;;;;;;;13.40;54.06;98399.19;4788368;30;19921;-78
2022/05/17 12:08:55;;;;;;;;;;;;;;;13.31;54.38;98396.91;4801826;29;19972;-76
2022/05/17 12:11:28;;;;;;;;;;;;;;;13.13;54.68;98390.56;4798863;29;19952;-77
2022/05/17 12:14:12;;;;;;;;;;;;;;;12.87;55.56;98392.28;4776944;29;19932;-77
2022/05/17 12:16:44;;;;;;;;;;;;;;;12.85;55.31;98385.44;4790816;29;19928;-77
2022/05/17 12:19:19;;;;;;;;;;;;;;;12.77;55.79;98397.88;4773323;30;19921;-77
2022/05/17 12:22:01;;;;;;;;;;;;;;;12.66;55.54;98383.47;4790097;29;19925;-79
2022/05/17 12:24:35;;;;;;;;;;;;;;;12.34;56.91;98394.06;4793036;29;19950;-77
2022/05/17 12:27:01;;;;;;;;;;;;;;;12.33;57.01;98390.59;4797382;29;19921;-79
2022/05/17 12:32:11;;;;;;;;;;;;;;;12.18;57.05;98402.31;4804820;29;20277;-77
2022/05/17 12:34:38;;;;;;;;;;;;;;;12.04;56.67;98396.69;4794224;29;19921;-76
2022/05/17 12:37:07;;;;;;;;;;;;;;;11.92;57.64;98400.53;4788843;29;20352;-78
2022/05/17 12:45:02;;;;;;;;;;;;;;;11.50;58.51;98397.38;4787484;29;20306;-78
2022/05/17 12:47:30;;;;;;;;;;;;;;;11.48;59.28;98404.34;4785320;30;19943;-77
2022/05/17 12:49:57;;;;;;;;;;;;;;;11.35;59.59;98401.22;4799841;29;19960;-77
2022/05/17 12:52:32;;;;;;;;;;;;;;;11.60;58.71;98398.81;4793864;29;19924;-76
2022/05/17 12:55:00;;;;;;;;;;;;;;;11.27;58.89;98391.94;4780118;30;19929;-80
2022/05/17 12:57:30;;;;;;;;;;;;;;;11.26;60.17;98406.69;4790876;29;19921;-78
2022/05/17 13:00:35;;;;;;;;;;;;;;;11.26;60.23;98393.69;4796955;29;20424;-77
2022/05/17 13:03:01;;;;;;;;;;;;;;;11.23;60.24;98409.38;4785883;29;20375;-79
2022/05/17 13:05:40;;;;;;;;;;;;;;;11.16;60.67;98403.47;4780702;30;19917;-79
2022/05/17 13:08:08;;;;;;;;;;;;;;;10.86;62.58;98399.09;4787214;29;20437;-78